sensor_id;sensor_type;location;lat;lon;timestamp;P1;durP1;ratioP1;P2;durP2;ratioP2
18286;SDS011;9269;50.838;12.094;2023-03-25T00:00:16;8.23;;;5.20;;
18286;SDS011;9269;50.838;12.094;2023-03-25T00:02:48;7.23;;;4.80;;
18286;SDS011;9269;50.838;12.094;2023-03-25T00:05:19;5.27;;;4.10;;
18286;SDS011;9269;50.838;12.094;2023-03-25T00:07:49;4.87;;;3.80;;
18286;SDS011;9269;50.838;12.094;2023-03-25T00:10:19;5.47;;;3.33;;
18286;SDS011;9269;50.838;12.094;2023-03-25T00:12:48;5.40;;;4.00;;
18286;SDS011;9269;50.838;12.094;2023-03-25T00:15:18;4.80;;;3.67;;
18286;SDS011;9269;50.838;12.094;2023-03-25T00:17:48;6.17;;;4.10;;
18286;SDS011;9269;50.838;12.094;2023-03-25T00:20:17;5.13;;;3.50;;
18286;SDS011;9269;50.838;12.094;2023-03-25T00:22:46;5.03;;;4.07;;
18286;SDS011;9269;50.838;12.094;2023-03-25T00:25:14;5.37;;;3.97;;
18286;SDS011;9269;50.838;12.094;2023-03-25T00:27:45;5.57;;;4.60;;
18286;SDS011;9269;50.838;12.094;2023-03-25T00:30:17;9.07;;;5.43;;
18286;SDS011;9269;50.838;12.094;2023-03-25T00:32:46;6.57;;;5.53;;
18286;SDS011;9269;50.838;12.094;2023-03-25T00:35:19;9.17;;;6.13;;
18286;SDS011;9269;50.838;12.094;2023-03-25T00:37:50;8.27;;;5.90;;
18286;SDS011;9269;50.838;12.094;2023-03-25T00:40:23;11.77;;;7.07;;
18286;SDS011;9269;50.838;12.094;2023-03-25T00:42:54;9.77;;;6.27;;
18286;SDS011;9269;50.838;12.094;2023-03-25T00:45:24;7.23;;;5.80;;
18286;SDS011;9269;50.838;12.094;2023-03-25T00:47:52;6.57;;;5.60;;
18286;SDS011;9269;50.838;12.094;2023-03-25T00:50:21;7.43;;;5.43;;
18286;SDS011;9269;50.838;12.094;2023-03-25T00:52:50;9.00;;;5.83;;
18286;SDS011;9269;50.838;12.094;2023-03-25T00:55:20;6.90;;;5.20;;
18286;SDS011;9269;50.838;12.094;2023-03-25T00:57:48;6.07;;;5.27;;
18286;SDS011;9269;50.838;12.094;2023-03-25T01:00:17;7.30;;;5.07;;
18286;SDS011;9269;50.838;12.094;2023-03-25T01:02:48;6.97;;;5.10;;
18286;SDS011;9269;50.838;12.094;2023-03-25T01:05:20;6.17;;;5.27;;
18286;SDS011;9269;50.838;12.094;2023-03-25T01:07:48;5.53;;;4.97;;
18286;SDS011;9269;50.838;12.094;2023-03-25T01:10:18;6.13;;;4.70;;
18286;SDS011;9269;50.838;12.094;2023-03-25T01:12:47;5.97;;;4.93;;
18286;SDS011;9269;50.838;12.094;2023-03-25T01:15:15;8.20;;;4.97;;
18286;SDS011;9269;50.838;12.094;2023-03-25T01:17:43;5.60;;;4.73;;
18286;SDS011;9269;50.838;12.094;2023-03-25T01:20:13;5.37;;;4.07;;
18286;SDS011;9269;50.838;12.094;2023-03-25T01:22:41;4.77;;;4.27;;
18286;SDS011;9269;50.838;12.094;2023-03-25T01:25:10;6.67;;;4.30;;
18286;SDS011;9269;50.838;12.094;2023-03-25T01:27:38;4.53;;;4.03;;
18286;SDS011;9269;50.838;12.094;2023-03-25T01:30:07;6.27;;;3.87;;
18286;SDS011;9269;50.838;12.094;2023-03-25T01:32:36;4.63;;;4.13;;
18286;SDS011;9269;50.838;12.094;2023-03-25T01:35:05;4.97;;;3.97;;
18286;SDS011;9269;50.838;12.094;2023-03-25T01:37:35;5.53;;;4.40;;
18286;SDS011;9269;50.838;12.094;2023-03-25T01:40:04;6.60;;;4.07;;
18286;SDS011;9269;50.838;12.094;2023-03-25T01:42:36;5.73;;;4.00;;
18286;SDS011;9269;50.838;12.094;2023-03-25T01:47:54;9.07;;;5.90;;
18286;SDS011;9269;50.838;12.094;2023-03-25T01:50:28;7.93;;;5.70;;
18286;SDS011;9269;50.838;12.094;2023-03-25T01:53:00;7.70;;;4.70;;
18286;SDS011;9269;50.838;12.094;2023-03-25T01:55:29;5.90;;;4.47;;
18286;SDS011;9269;50.838;12.094;2023-03-25T01:58:01;5.80;;;4.43;;
18286;SDS011;9269;50.838;12.094;2023-03-25T02:00:33;4.20;;;3.53;;
18286;SDS011;9269;50.838;12.094;2023-03-25T02:03:01;4.00;;;2.97;;
18286;SDS011;9269;50.838;12.094;2023-03-25T02:05:32;3.10;;;2.70;;
18286;SDS011;9269;50.838;12.094;2023-03-25T02:08:06;3.20;;;2.90;;
18286;SDS011;9269;50.838;12.094;2023-03-25T02:10:35;4.57;;;2.97;;
18286;SDS011;9269;50.838;12.094;2023-03-25T02:13:04;4.67;;;2.90;;
18286;SDS011;9269;50.838;12.094;2023-03-25T02:15:37;4.73;;;3.00;;
18286;SDS011;9269;50.838;12.094;2023-03-25T02:18:18;3.50;;;2.60;;
18286;SDS011;9269;50.838;12.094;2023-03-25T02:21:03;3.27;;;2.70;;
18286;SDS011;9269;50.838;12.094;2023-03-25T02:23:59;3.70;;;2.43;;
18286;SDS011;9269;50.838;12.094;2023-03-25T02:30:03;3.83;;;1.93;;
18286;SDS011;9269;50.838;12.094;2023-03-25T02:32:55;2.13;;;1.93;;
18286;SDS011;9269;50.838;12.094;2023-03-25T02:39:13;3.23;;;1.90;;
18286;SDS011;9269;50.838;12.094;2023-03-25T02:41:48;1.87;;;1.67;;
18286;SDS011;9269;50.838;12.094;2023-03-25T02:44:22;2.50;;;2.10;;
18286;SDS011;9269;50.838;12.094;2023-03-25T02:46:57;4.27;;;1.77;;
18286;SDS011;9269;50.838;12.094;2023-03-25T02:49:29;2.93;;;1.70;;
18286;SDS011;9269;50.838;12.094;2023-03-25T02:52:04;2.10;;;1.90;;
18286;SDS011;9269;50.838;12.094;2023-03-25T02:54:39;2.63;;;1.60;;
18286;SDS011;9269;50.838;12.094;2023-03-25T02:57:11;1.90;;;1.33;;
18286;SDS011;9269;50.838;12.094;2023-03-25T02:59:44;2.70;;;1.53;;
18286;SDS011;9269;50.838;12.094;2023-03-25T03:02:14;2.47;;;1.57;;
18286;SDS011;9269;50.838;12.094;2023-03-25T03:04:46;2.00;;;1.53;;
18286;SDS011;9269;50.838;12.094;2023-03-25T03:07:17;2.00;;;1.43;;
18286;SDS011;9269;50.838;12.094;2023-03-25T03:09:55;3.43;;;1.67;;
18286;SDS011;9269;50.838;12.094;2023-03-25T03:12:36;2.67;;;1.60;;
18286;SDS011;9269;50.838;12.094;2023-03-25T03:15:16;2.07;;;1.70;;
18286;SDS011;9269;50.838;12.094;2023-03-25T03:17:53;2.30;;;1.60;;
18286;SDS011;9269;50.838;12.094;2023-03-25T03:20:33;2.67;;;1.57;;
18286;SDS011;9269;50.838;12.094;2023-03-25T03:23:08;2.30;;;1.60;;
18286;SDS011;9269;50.838;12.094;2023-03-25T03:25:44;2.67;;;1.60;;
18286;SDS011;9269;50.838;12.094;2023-03-25T03:28:18;2.70;;;1.53;;
18286;SDS011;9269;50.838;12.094;2023-03-25T03:30:54;1.50;;;1.40;;
18286;SDS011;9269;50.838;12.094;2023-03-25T03:33:29;2.80;;;1.67;;
18286;SDS011;9269;50.838;12.094;2023-03-25T03:36:05;1.70;;;1.30;;
18286;SDS011;9269;50.838;12.094;2023-03-25T03:38:40;2.17;;;1.40;;
18286;SDS011;9269;50.838;12.094;2023-03-25T03:41:16;1.80;;;1.50;;
18286;SDS011;9269;50.838;12.094;2023-03-25T03:43:47;1.83;;;1.67;;
18286;SDS011;9269;50.838;12.094;2023-03-25T03:46:19;3.83;;;1.33;;
18286;SDS011;9269;50.838;12.094;2023-03-25T03:48:52;2.67;;;1.10;;
18286;SDS011;9269;50.838;12.094;2023-03-25T03:51:24;2.50;;;1.40;;
18286;SDS011;9269;50.838;12.094;2023-03-25T03:53:56;2.83;;;1.17;;
18286;SDS011;9269;50.838;12.094;2023-03-25T03:56:29;1.40;;;1.10;;
18286;SDS011;9269;50.838;12.094;2023-03-25T03:59:03;1.77;;;1.20;;
18286;SDS011;9269;50.838;12.094;2023-03-25T04:01:38;0.83;;;0.83;;
18286;SDS011;9269;50.838;12.094;2023-03-25T04:04:12;0.87;;;0.87;;
18286;SDS011;9269;50.838;12.094;2023-03-25T04:06:46;1.03;;;0.87;;
18286;SDS011;9269;50.838;12.094;2023-03-25T04:09:22;2.10;;;0.77;;
18286;SDS011;9269;50.838;12.094;2023-03-25T04:12:02;2.23;;;0.60;;
18286;SDS011;9269;50.838;12.094;2023-03-25T04:14:32;0.83;;;0.43;;
18286;SDS011;9269;50.838;12.094;2023-03-25T04:17:01;0.57;;;0.40;;
18286;SDS011;9269;50.838;12.094;2023-03-25T04:19:31;1.13;;;0.60;;
18286;SDS011;9269;50.838;12.094;2023-03-25T04:22:00;0.40;;;0.40;;
18286;SDS011;9269;50.838;12.094;2023-03-25T04:24:30;1.27;;;0.40;;
18286;SDS011;9269;50.838;12.094;2023-03-25T04:26:58;1.13;;;0.50;;
18286;SDS011;9269;50.838;12.094;2023-03-25T04:29:29;1.27;;;0.60;;
18286;SDS011;9269;50.838;12.094;2023-03-25T04:31:58;1.60;;;0.60;;
18286;SDS011;9269;50.838;12.094;2023-03-25T04:34:27;2.10;;;0.60;;
18286;SDS011;9269;50.838;12.094;2023-03-25T04:36:55;1.53;;;0.60;;
18286;SDS011;9269;50.838;12.094;2023-03-25T04:39:24;1.77;;;0.80;;
18286;SDS011;9269;50.838;12.094;2023-03-25T04:41:55;0.97;;;0.40;;
18286;SDS011;9269;50.838;12.094;2023-03-25T04:44:25;1.27;;;0.43;;
18286;SDS011;9269;50.838;12.094;2023-03-25T04:46:54;0.87;;;0.60;;
18286;SDS011;9269;50.838;12.094;2023-03-25T04:49:23;0.20;;;0.20;;
18286;SDS011;9269;50.838;12.094;2023-03-25T04:51:52;1.13;;;0.80;;
18286;SDS011;9269;50.838;12.094;2023-03-25T04:54:22;0.60;;;0.50;;
18286;SDS011;9269;50.838;12.094;2023-03-25T04:56:51;1.27;;;0.50;;
18286;SDS011;9269;50.838;12.094;2023-03-25T04:59:20;0.77;;;0.40;;
18286;SDS011;9269;50.838;12.094;2023-03-25T05:01:51;2.50;;;0.60;;
18286;SDS011;9269;50.838;12.094;2023-03-25T05:04:20;0.40;;;0.40;;
18286;SDS011;9269;50.838;12.094;2023-03-25T05:06:50;0.87;;;0.57;;
18286;SDS011;9269;50.838;12.094;2023-03-25T05:09:19;1.00;;;0.50;;
18286;SDS011;9269;50.838;12.094;2023-03-25T05:11:49;1.10;;;0.57;;
18286;SDS011;9269;50.838;12.094;2023-03-25T05:14:19;1.53;;;0.67;;
18286;SDS011;9269;50.838;12.094;2023-03-25T05:16:48;1.60;;;0.57;;
18286;SDS011;9269;50.838;12.094;2023-03-25T05:19:19;1.03;;;0.50;;
18286;SDS011;9269;50.838;12.094;2023-03-25T05:21:47;1.90;;;0.87;;
18286;SDS011;9269;50.838;12.094;2023-03-25T05:24:15;1.00;;;0.57;;
18286;SDS011;9269;50.838;12.094;2023-03-25T05:26:45;1.70;;;0.47;;
18286;SDS011;9269;50.838;12.094;2023-03-25T05:29:13;0.87;;;0.60;;
18286;SDS011;9269;50.838;12.094;2023-03-25T05:31:42;1.63;;;0.63;;
18286;SDS011;9269;50.838;12.094;2023-03-25T05:34:12;2.00;;;0.60;;
18286;SDS011;9269;50.838;12.094;2023-03-25T05:36:44;1.27;;;0.67;;
18286;SDS011;9269;50.838;12.094;2023-03-25T05:39:13;1.10;;;0.40;;
18286;SDS011;9269;50.838;12.094;2023-03-25T05:41:41;2.40;;;0.90;;
18286;SDS011;9269;50.838;12.094;2023-03-25T05:44:11;1.27;;;1.10;;
18286;SDS011;9269;50.838;12.094;2023-03-25T05:46:41;1.47;;;0.60;;
18286;SDS011;9269;50.838;12.094;2023-03-25T05:49:09;2.43;;;1.00;;
18286;SDS011;9269;50.838;12.094;2023-03-25T05:51:38;2.53;;;0.90;;
18286;SDS011;9269;50.838;12.094;2023-03-25T05:54:09;2.90;;;1.10;;
18286;SDS011;9269;50.838;12.094;2023-03-25T05:56:38;2.20;;;0.97;;
18286;SDS011;9269;50.838;12.094;2023-03-25T05:59:07;2.17;;;0.80;;
18286;SDS011;9269;50.838;12.094;2023-03-25T06:01:36;1.43;;;0.93;;
18286;SDS011;9269;50.838;12.094;2023-03-25T06:04:04;1.00;;;0.80;;
18286;SDS011;9269;50.838;12.094;2023-03-25T06:06:36;2.80;;;1.07;;
18286;SDS011;9269;50.838;12.094;2023-03-25T06:09:05;2.23;;;0.83;;
18286;SDS011;9269;50.838;12.094;2023-03-25T06:11:35;3.77;;;0.97;;
18286;SDS011;9269;50.838;12.094;2023-03-25T06:14:04;0.73;;;0.60;;
18286;SDS011;9269;50.838;12.094;2023-03-25T06:16:34;2.60;;;0.90;;
18286;SDS011;9269;50.838;12.094;2023-03-25T06:19:02;2.10;;;0.90;;
18286;SDS011;9269;50.838;12.094;2023-03-25T06:21:31;3.60;;;1.00;;
18286;SDS011;9269;50.838;12.094;2023-03-25T06:24:00;1.90;;;0.80;;
18286;SDS011;9269;50.838;12.094;2023-03-25T06:26:29;1.50;;;0.90;;
18286;SDS011;9269;50.838;12.094;2023-03-25T06:29:00;1.70;;;0.73;;
18286;SDS011;9269;50.838;12.094;2023-03-25T06:31:29;1.87;;;0.83;;
18286;SDS011;9269;50.838;12.094;2023-03-25T06:33:59;2.37;;;1.13;;
18286;SDS011;9269;50.838;12.094;2023-03-25T06:36:28;3.27;;;1.37;;
18286;SDS011;9269;50.838;12.094;2023-03-25T06:38:57;1.87;;;1.10;;
18286;SDS011;9269;50.838;12.094;2023-03-25T06:41:25;1.53;;;1.07;;
18286;SDS011;9269;50.838;12.094;2023-03-25T06:43:54;2.03;;;0.80;;
18286;SDS011;9269;50.838;12.094;2023-03-25T06:46:23;1.93;;;1.23;;
18286;SDS011;9269;50.838;12.094;2023-03-25T06:48:52;2.13;;;0.93;;
18286;SDS011;9269;50.838;12.094;2023-03-25T06:51:20;2.47;;;0.97;;
18286;SDS011;9269;50.838;12.094;2023-03-25T06:53:50;1.53;;;1.10;;
18286;SDS011;9269;50.838;12.094;2023-03-25T06:56:19;4.13;;;2.17;;
18286;SDS011;9269;50.838;12.094;2023-03-25T06:58:48;11.30;;;7.37;;
18286;SDS011;9269;50.838;12.094;2023-03-25T07:01:16;13.87;;;10.20;;
18286;SDS011;9269;50.838;12.094;2023-03-25T07:03:46;5.60;;;4.50;;
18286;SDS011;9269;50.838;12.094;2023-03-25T07:06:15;6.90;;;4.77;;
18286;SDS011;9269;50.838;12.094;2023-03-25T07:08:44;4.17;;;3.47;;
18286;SDS011;9269;50.838;12.094;2023-03-25T07:11:13;6.97;;;5.97;;
18286;SDS011;9269;50.838;12.094;2023-03-25T07:13:43;9.33;;;7.07;;
18286;SDS011;9269;50.838;12.094;2023-03-25T07:16:11;8.73;;;7.23;;
18286;SDS011;9269;50.838;12.094;2023-03-25T07:18:40;10.00;;;8.97;;
18286;SDS011;9269;50.838;12.094;2023-03-25T07:21:10;17.47;;;14.87;;
18286;SDS011;9269;50.838;12.094;2023-03-25T07:23:38;12.47;;;11.10;;
18286;SDS011;9269;50.838;12.094;2023-03-25T07:26:07;8.57;;;7.33;;
18286;SDS011;9269;50.838;12.094;2023-03-25T07:28:35;8.10;;;7.30;;
18286;SDS011;9269;50.838;12.094;2023-03-25T07:31:06;6.97;;;5.90;;
18286;SDS011;9269;50.838;12.094;2023-03-25T07:33:36;3.27;;;2.97;;
18286;SDS011;9269;50.838;12.094;2023-03-25T07:36:06;3.87;;;2.83;;
18286;SDS011;9269;50.838;12.094;2023-03-25T07:38:36;2.70;;;1.80;;
18286;SDS011;9269;50.838;12.094;2023-03-25T07:41:06;3.30;;;1.60;;
18286;SDS011;9269;50.838;12.094;2023-03-25T07:43:36;3.10;;;1.93;;
18286;SDS011;9269;50.838;12.094;2023-03-25T07:46:04;2.30;;;1.40;;
18286;SDS011;9269;50.838;12.094;2023-03-25T07:48:37;2.03;;;1.50;;
18286;SDS011;9269;50.838;12.094;2023-03-25T07:51:05;2.30;;;1.33;;
18286;SDS011;9269;50.838;12.094;2023-03-25T07:53:37;2.70;;;1.50;;
18286;SDS011;9269;50.838;12.094;2023-03-25T07:56:08;4.47;;;2.33;;
18286;SDS011;9269;50.838;12.094;2023-03-25T07:58:37;12.43;;;6.67;;
18286;SDS011;9269;50.838;12.094;2023-03-25T08:01:06;11.77;;;6.70;;
18286;SDS011;9269;50.838;12.094;2023-03-25T08:03:35;16.40;;;9.50;;
18286;SDS011;9269;50.838;12.094;2023-03-25T08:06:06;17.70;;;11.33;;
18286;SDS011;9269;50.838;12.094;2023-03-25T08:08:35;7.83;;;5.53;;
18286;SDS011;9269;50.838;12.094;2023-03-25T08:11:05;4.70;;;3.30;;
18286;SDS011;9269;50.838;12.094;2023-03-25T08:13:34;3.90;;;2.50;;
18286;SDS011;9269;50.838;12.094;2023-03-25T08:16:07;2.20;;;1.80;;
18286;SDS011;9269;50.838;12.094;2023-03-25T08:18:38;5.77;;;3.40;;
18286;SDS011;9269;50.838;12.094;2023-03-25T08:21:11;4.03;;;2.53;;
18286;SDS011;9269;50.838;12.094;2023-03-25T08:23:39;1.43;;;1.20;;
18286;SDS011;9269;50.838;12.094;2023-03-25T08:26:11;2.83;;;1.90;;
18286;SDS011;9269;50.838;12.094;2023-03-25T08:28:40;2.13;;;1.40;;
18286;SDS011;9269;50.838;12.094;2023-03-25T08:31:08;3.23;;;1.40;;
18286;SDS011;9269;50.838;12.094;2023-03-25T08:33:38;1.87;;;1.40;;
18286;SDS011;9269;50.838;12.094;2023-03-25T08:36:07;2.33;;;1.50;;
18286;SDS011;9269;50.838;12.094;2023-03-25T08:38:39;1.10;;;1.00;;
18286;SDS011;9269;50.838;12.094;2023-03-25T08:41:08;2.07;;;1.13;;
18286;SDS011;9269;50.838;12.094;2023-03-25T08:43:38;1.60;;;1.10;;
18286;SDS011;9269;50.838;12.094;2023-03-25T08:46:08;4.47;;;2.37;;
18286;SDS011;9269;50.838;12.094;2023-03-25T08:48:37;3.20;;;1.97;;
18286;SDS011;9269;50.838;12.094;2023-03-25T08:51:06;1.47;;;0.97;;
18286;SDS011;9269;50.838;12.094;2023-03-25T08:53:34;2.37;;;0.90;;
18286;SDS011;9269;50.838;12.094;2023-03-25T08:56:03;1.40;;;1.30;;
18286;SDS011;9269;50.838;12.094;2023-03-25T08:58:33;2.43;;;1.60;;
18286;SDS011;9269;50.838;12.094;2023-03-25T09:01:03;2.10;;;1.50;;
18286;SDS011;9269;50.838;12.094;2023-03-25T09:03:32;2.73;;;1.90;;
18286;SDS011;9269;50.838;12.094;2023-03-25T09:06:04;2.57;;;1.80;;
18286;SDS011;9269;50.838;12.094;2023-03-25T09:08:33;2.63;;;1.70;;
18286;SDS011;9269;50.838;12.094;2023-03-25T09:11:03;5.47;;;2.63;;
18286;SDS011;9269;50.838;12.094;2023-03-25T09:13:32;5.50;;;2.20;;
18286;SDS011;9269;50.838;12.094;2023-03-25T09:16:01;3.93;;;2.07;;
18286;SDS011;9269;50.838;12.094;2023-03-25T09:18:31;2.20;;;1.20;;
18286;SDS011;9269;50.838;12.094;2023-03-25T09:21:02;3.00;;;2.23;;
18286;SDS011;9269;50.838;12.094;2023-03-25T09:23:31;2.10;;;1.40;;
18286;SDS011;9269;50.838;12.094;2023-03-25T09:26:01;1.77;;;1.23;;
18286;SDS011;9269;50.838;12.094;2023-03-25T09:28:29;2.80;;;2.00;;
18286;SDS011;9269;50.838;12.094;2023-03-25T09:30:59;2.50;;;2.00;;
18286;SDS011;9269;50.838;12.094;2023-03-25T09:34:03;2.93;;;1.77;;
18286;SDS011;9269;50.838;12.094;2023-03-25T09:36:32;5.53;;;2.60;;
18286;SDS011;9269;50.838;12.094;2023-03-25T09:39:00;3.00;;;1.87;;
18286;SDS011;9269;50.838;12.094;2023-03-25T09:41:35;2.93;;;1.77;;
18286;SDS011;9269;50.838;12.094;2023-03-25T09:44:15;5.30;;;2.70;;
18286;SDS011;9269;50.838;12.094;2023-03-25T09:46:49;4.63;;;2.60;;
18286;SDS011;9269;50.838;12.094;2023-03-25T09:49:20;4.77;;;2.27;;
18286;SDS011;9269;50.838;12.094;2023-03-25T09:51:51;4.30;;;2.47;;
18286;SDS011;9269;50.838;12.094;2023-03-25T09:54:21;3.40;;;1.70;;
18286;SDS011;9269;50.838;12.094;2023-03-25T09:56:55;2.33;;;1.53;;
18286;SDS011;9269;50.838;12.094;2023-03-25T09:59:31;4.73;;;2.30;;
18286;SDS011;9269;50.838;12.094;2023-03-25T10:02:10;3.33;;;1.77;;
18286;SDS011;9269;50.838;12.094;2023-03-25T10:05:09;2.53;;;1.70;;
18286;SDS011;9269;50.838;12.094;2023-03-25T10:08:01;1.77;;;1.07;;
18286;SDS011;9269;50.838;12.094;2023-03-25T10:10:41;1.93;;;0.90;;
18286;SDS011;9269;50.838;12.094;2023-03-25T10:13:17;2.10;;;1.23;;
18286;SDS011;9269;50.838;12.094;2023-03-25T10:15:52;1.57;;;0.73;;
18286;SDS011;9269;50.838;12.094;2023-03-25T10:18:35;2.60;;;1.30;;
18286;SDS011;9269;50.838;12.094;2023-03-25T10:21:16;1.40;;;0.90;;
18286;SDS011;9269;50.838;12.094;2023-03-25T10:23:47;2.80;;;1.40;;
18286;SDS011;9269;50.838;12.094;2023-03-25T10:26:23;2.60;;;1.70;;
18286;SDS011;9269;50.838;12.094;2023-03-25T10:28:55;4.60;;;2.40;;
18286;SDS011;9269;50.838;12.094;2023-03-25T10:31:28;3.47;;;1.70;;
18286;SDS011;9269;50.838;12.094;2023-03-25T10:34:03;2.37;;;1.30;;
18286;SDS011;9269;50.838;12.094;2023-03-25T10:36:39;2.23;;;1.30;;
18286;SDS011;9269;50.838;12.094;2023-03-25T10:39:12;4.00;;;1.97;;
18286;SDS011;9269;50.838;12.094;2023-03-25T10:41:45;10.23;;;4.80;;
18286;SDS011;9269;50.838;12.094;2023-03-25T10:44:19;6.27;;;2.87;;
18286;SDS011;9269;50.838;12.094;2023-03-25T10:46:50;2.73;;;1.70;;
18286;SDS011;9269;50.838;12.094;2023-03-25T10:49:24;5.30;;;2.50;;
18286;SDS011;9269;50.838;12.094;2023-03-25T10:51:56;5.03;;;2.90;;
18286;SDS011;9269;50.838;12.094;2023-03-25T10:54:26;2.60;;;1.80;;
18286;SDS011;9269;50.838;12.094;2023-03-25T10:56:58;2.90;;;1.77;;
18286;SDS011;9269;50.838;12.094;2023-03-25T10:59:30;5.97;;;2.90;;
18286;SDS011;9269;50.838;12.094;2023-03-25T11:02:03;4.50;;;1.77;;
18286;SDS011;9269;50.838;12.094;2023-03-25T11:04:41;1.50;;;1.03;;
18286;SDS011;9269;50.838;12.094;2023-03-25T11:07:15;2.07;;;1.10;;
18286;SDS011;9269;50.838;12.094;2023-03-25T11:09:47;6.13;;;3.20;;
18286;SDS011;9269;50.838;12.094;2023-03-25T11:12:17;5.37;;;3.30;;
18286;SDS011;9269;50.838;12.094;2023-03-25T11:15:04;4.27;;;2.40;;
18286;SDS011;9269;50.838;12.094;2023-03-25T11:17:33;3.37;;;1.73;;
18286;SDS011;9269;50.838;12.094;2023-03-25T11:20:03;4.37;;;2.00;;
18286;SDS011;9269;50.838;12.094;2023-03-25T11:22:38;6.20;;;2.90;;
18286;SDS011;9269;50.838;12.094;2023-03-25T11:25:15;5.73;;;3.37;;
18286;SDS011;9269;50.838;12.094;2023-03-25T11:27:47;4.80;;;2.70;;
18286;SDS011;9269;50.838;12.094;2023-03-25T11:30:19;3.83;;;2.43;;
18286;SDS011;9269;50.838;12.094;2023-03-25T11:32:55;4.77;;;2.03;;
18286;SDS011;9269;50.838;12.094;2023-03-25T11:35:26;2.40;;;1.30;;
18286;SDS011;9269;50.838;12.094;2023-03-25T11:37:57;2.63;;;1.67;;
18286;SDS011;9269;50.838;12.094;2023-03-25T11:40:28;3.53;;;1.63;;
18286;SDS011;9269;50.838;12.094;2023-03-25T11:42:59;3.87;;;1.50;;
18286;SDS011;9269;50.838;12.094;2023-03-25T11:45:30;1.77;;;1.10;;
18286;SDS011;9269;50.838;12.094;2023-03-25T11:48:07;2.23;;;1.23;;
18286;SDS011;9269;50.838;12.094;2023-03-25T11:50:37;1.10;;;1.00;;
18286;SDS011;9269;50.838;12.094;2023-03-25T11:53:15;3.23;;;1.63;;
18286;SDS011;9269;50.838;12.094;2023-03-25T11:55:44;1.93;;;1.40;;
18286;SDS011;9269;50.838;12.094;2023-03-25T11:58:15;5.20;;;1.93;;
18286;SDS011;9269;50.838;12.094;2023-03-25T12:00:47;4.37;;;2.87;;
18286;SDS011;9269;50.838;12.094;2023-03-25T12:03:17;2.83;;;1.50;;
18286;SDS011;9269;50.838;12.094;2023-03-25T12:05:59;5.47;;;1.80;;
18286;SDS011;9269;50.838;12.094;2023-03-25T12:08:41;3.93;;;2.40;;
18286;SDS011;9269;50.838;12.094;2023-03-25T12:11:11;3.33;;;1.53;;
18286;SDS011;9269;50.838;12.094;2023-03-25T12:13:50;2.43;;;1.40;;
18286;SDS011;9269;50.838;12.094;2023-03-25T12:16:36;4.17;;;2.30;;
18286;SDS011;9269;50.838;12.094;2023-03-25T12:19:14;2.57;;;1.50;;
18286;SDS011;9269;50.838;12.094;2023-03-25T12:21:51;7.70;;;2.80;;
18286;SDS011;9269;50.838;12.094;2023-03-25T12:24:51;4.37;;;1.90;;
18286;SDS011;9269;50.838;12.094;2023-03-25T12:27:58;5.17;;;2.70;;
18286;SDS011;9269;50.838;12.094;2023-03-25T12:30:41;6.00;;;2.90;;
18286;SDS011;9269;50.838;12.094;2023-03-25T12:33:23;4.57;;;2.07;;
18286;SDS011;9269;50.838;12.094;2023-03-25T12:36:12;4.83;;;2.20;;
18286;SDS011;9269;50.838;12.094;2023-03-25T12:38:53;4.13;;;1.73;;
18286;SDS011;9269;50.838;12.094;2023-03-25T12:41:31;2.80;;;1.50;;
18286;SDS011;9269;50.838;12.094;2023-03-25T12:44:06;3.53;;;1.90;;
18286;SDS011;9269;50.838;12.094;2023-03-25T12:49:36;6.13;;;2.40;;
18286;SDS011;9269;50.838;12.094;2023-03-25T12:52:16;5.57;;;2.70;;
18286;SDS011;9269;50.838;12.094;2023-03-25T12:54:53;5.77;;;2.47;;
18286;SDS011;9269;50.838;12.094;2023-03-25T12:57:42;3.87;;;1.90;;
18286;SDS011;9269;50.838;12.094;2023-03-25T13:00:30;5.13;;;1.87;;
18286;SDS011;9269;50.838;12.094;2023-03-25T13:03:11;2.13;;;1.00;;
18286;SDS011;9269;50.838;12.094;2023-03-25T13:05:49;0.80;;;0.40;;
18286;SDS011;9269;50.838;12.094;2023-03-25T13:08:22;1.87;;;0.47;;
18286;SDS011;9269;50.838;12.094;2023-03-25T13:10:55;0.53;;;0.50;;
18286;SDS011;9269;50.838;12.094;2023-03-25T13:13:31;1.20;;;0.53;;
18286;SDS011;9269;50.838;12.094;2023-03-25T13:16:03;1.50;;;0.60;;
18286;SDS011;9269;50.838;12.094;2023-03-25T13:18:36;1.57;;;1.07;;
18286;SDS011;9269;50.838;12.094;2023-03-25T13:21:12;1.43;;;0.80;;
18286;SDS011;9269;50.838;12.094;2023-03-25T13:23:47;1.60;;;1.00;;
18286;SDS011;9269;50.838;12.094;2023-03-25T13:26:20;1.73;;;0.80;;
18286;SDS011;9269;50.838;12.094;2023-03-25T13:28:54;1.73;;;0.63;;
18286;SDS011;9269;50.838;12.094;2023-03-25T13:31:29;1.80;;;1.20;;
18286;SDS011;9269;50.838;12.094;2023-03-25T13:34:05;1.23;;;0.90;;
18286;SDS011;9269;50.838;12.094;2023-03-25T13:36:44;1.33;;;0.93;;
18286;SDS011;9269;50.838;12.094;2023-03-25T13:39:20;1.63;;;1.40;;
18286;SDS011;9269;50.838;12.094;2023-03-25T13:41:54;2.40;;;1.47;;
18286;SDS011;9269;50.838;12.094;2023-03-25T13:44:30;2.37;;;1.00;;
18286;SDS011;9269;50.838;12.094;2023-03-25T13:47:04;3.43;;;1.27;;
18286;SDS011;9269;50.838;12.094;2023-03-25T13:49:40;2.13;;;1.20;;
18286;SDS011;9269;50.838;12.094;2023-03-25T13:52:13;1.23;;;0.97;;
18286;SDS011;9269;50.838;12.094;2023-03-25T13:54:42;2.50;;;1.87;;
18286;SDS011;9269;50.838;12.094;2023-03-25T13:57:22;2.47;;;1.40;;
18286;SDS011;9269;50.838;12.094;2023-03-25T14:03:19;1.90;;;1.40;;
18286;SDS011;9269;50.838;12.094;2023-03-25T14:06:06;2.53;;;1.30;;
18286;SDS011;9269;50.838;12.094;2023-03-25T14:08:57;2.03;;;1.40;;
18286;SDS011;9269;50.838;12.094;2023-03-25T14:11:46;2.13;;;1.23;;
18286;SDS011;9269;50.838;12.094;2023-03-25T14:14:20;1.53;;;1.40;;
18286;SDS011;9269;50.838;12.094;2023-03-25T14:16:52;2.43;;;1.83;;
18286;SDS011;9269;50.838;12.094;2023-03-25T14:19:24;2.27;;;1.50;;
18286;SDS011;9269;50.838;12.094;2023-03-25T14:21:58;3.00;;;1.70;;
18286;SDS011;9269;50.838;12.094;2023-03-25T14:24:34;2.70;;;1.47;;
18286;SDS011;9269;50.838;12.094;2023-03-25T14:27:03;2.03;;;1.07;;
18286;SDS011;9269;50.838;12.094;2023-03-25T14:29:35;1.53;;;1.00;;
18286;SDS011;9269;50.838;12.094;2023-03-25T14:38:17;2.87;;;1.60;;
18286;SDS011;9269;50.838;12.094;2023-03-25T14:41:01;1.40;;;1.30;;
18286;SDS011;9269;50.838;12.094;2023-03-25T14:43:35;1.73;;;1.20;;
18286;SDS011;9269;50.838;12.094;2023-03-25T14:46:12;3.23;;;1.80;;
18286;SDS011;9269;50.838;12.094;2023-03-25T14:48:49;1.53;;;1.43;;
18286;SDS011;9269;50.838;12.094;2023-03-25T14:51:20;1.97;;;1.30;;
18286;SDS011;9269;50.838;12.094;2023-03-25T14:54:02;1.87;;;1.50;;
18286;SDS011;9269;50.838;12.094;2023-03-25T14:56:41;2.70;;;1.53;;
18286;SDS011;9269;50.838;12.094;2023-03-25T14:59:14;2.80;;;1.10;;
18286;SDS011;9269;50.838;12.094;2023-03-25T15:01:44;1.80;;;1.00;;
18286;SDS011;9269;50.838;12.094;2023-03-25T15:04:21;1.57;;;1.07;;
18286;SDS011;9269;50.838;12.094;2023-03-25T15:06:53;1.23;;;1.13;;
18286;SDS011;9269;50.838;12.094;2023-03-25T15:09:23;1.97;;;1.03;;
18286;SDS011;9269;50.838;12.094;2023-03-25T15:11:54;2.10;;;0.93;;
18286;SDS011;9269;50.838;12.094;2023-03-25T15:14:26;1.50;;;1.00;;
18286;SDS011;9269;50.838;12.094;2023-03-25T15:17:02;1.53;;;0.93;;
18286;SDS011;9269;50.838;12.094;2023-03-25T15:22:41;1.70;;;0.90;;
18286;SDS011;9269;50.838;12.094;2023-03-25T15:25:11;1.57;;;1.20;;
18286;SDS011;9269;50.838;12.094;2023-03-25T15:27:48;2.03;;;1.70;;
18286;SDS011;9269;50.838;12.094;2023-03-25T15:30:45;7.87;;;3.10;;
18286;SDS011;9269;50.838;12.094;2023-03-25T15:33:28;7.10;;;3.40;;
18286;SDS011;9269;50.838;12.094;2023-03-25T15:36:20;10.53;;;4.43;;
18286;SDS011;9269;50.838;12.094;2023-03-25T15:39:06;8.00;;;3.60;;
18286;SDS011;9269;50.838;12.094;2023-03-25T15:41:55;6.80;;;2.60;;
18286;SDS011;9269;50.838;12.094;2023-03-25T15:50:33;4.07;;;2.20;;
18286;SDS011;9269;50.838;12.094;2023-03-25T15:53:21;5.03;;;2.20;;